Time;durP1;ratioP1;P1;durP2;ratioP2;P2;SDS_P1;SDS_P2;PMS_P1;PMS_P2;Temp;Humidity;BMP_temperature;BMP_pressure;BME280_temperature;BME280_humidity;BME280_pressure;Samples;Min_cycle;Max_cycle;Signal;HPM_P1;HPM_P2
2022/11/13 00:00:37;;;;;;;11.15;9.02;;;18.70;99.90;;;;;;4179267;28;20622;-73
2022/11/13 00:02:39;;;;;;;11.55;8.48;;;18.70;99.90;;;;;;4179594;28;20617;-73
2022/11/13 00:04:41;;;;;;;10.48;8.60;;;18.70;99.90;;;;;;4179682;28;20259;-73
2022/11/13 00:06:44;;;;;;;12.80;9.35;;;18.60;99.90;;;;;;4175433;28;20516;-73
2022/11/13 00:08:47;;;;;;;10.13;8.65;;;18.60;99.90;;;;;;4163536;28;20216;-73
2022/11/13 00:10:49;;;;;;;11.13;8.90;;;18.60;99.90;;;;;;4163274;28;20267;-73
2022/11/13 00:12:54;;;;;;;12.25;8.50;;;18.60;99.90;;;;;;4163119;28;20274;-73
2022/11/13 00:14:57;;;;;;;9.43;7.93;;;18.70;99.90;;;;;;4163208;28;20240;-73
2022/11/13 00:16:59;;;;;;;11.65;8.82;;;18.60;99.90;;;;;;4165264;28;20224;-73
2022/11/13 00:19:01;;;;;;;12.73;8.40;;;18.60;99.90;;;;;;4163087;28;20288;-73
2022/11/13 00:21:08;;;;;;;11.82;9.43;;;18.60;99.90;;;;;;4163357;28;20275;-73
2022/11/13 00:23:11;;;;;;;10.60;8.73;;;18.60;99.90;;;;;;4162905;28;20216;-73
2022/11/13 00:25:13;;;;;;;11.15;8.50;;;18.70;99.90;;;;;;4179593;28;20676;-73
2022/11/13 00:27:15;;;;;;;11.02;9.18;;;18.60;99.90;;;;;;4179823;28;20219;-73
2022/11/13 00:29:19;;;;;;;11.13;9.07;;;18.60;99.90;;;;;;4178901;28;20265;-74
2022/11/13 00:31:22;;;;;;;11.02;9.50;;;18.60;99.90;;;;;;4177582;28;20269;-73
2022/11/13 00:33:24;;;;;;;13.90;9.25;;;18.60;99.90;;;;;;4178115;28;20281;-73
2022/11/13 00:35:26;;;;;;;10.85;8.90;;;18.60;99.90;;;;;;4178076;28;20219;-73
2022/11/13 00:37:28;;;;;;;13.63;9.65;;;18.60;99.90;;;;;;4178649;28;20219;-73
2022/11/13 00:39:31;;;;;;;12.55;9.68;;;18.60;99.90;;;;;;4178433;28;20220;-73
2022/11/13 00:41:33;;;;;;;13.70;9.32;;;18.60;99.90;;;;;;4170750;28;20328;-73
2022/11/13 00:43:35;;;;;;;13.77;9.30;;;18.50;99.90;;;;;;4179230;28;20270;-73
2022/11/13 00:45:39;;;;;;;11.18;9.02;;;18.60;99.90;;;;;;4178993;28;20215;-73
2022/11/13 00:47:41;;;;;;;10.63;9.52;;;18.60;99.90;;;;;;4179406;28;20621;-73
2022/11/13 00:49:44;;;;;;;11.82;9.50;;;18.60;99.90;;;;;;4179037;28;20620;-73
2022/11/13 00:51:46;;;;;;;10.55;8.80;;;18.60;99.90;;;;;;4179341;28;20223;-73
2022/11/13 00:53:48;;;;;;;10.43;9.20;;;18.60;99.90;;;;;;4179410;28;20219;-73
2022/11/13 00:55:51;;;;;;;10.18;8.82;;;18.60;99.90;;;;;;4179217;28;20246;-73
2022/11/13 00:57:53;;;;;;;12.70;9.55;;;18.50;99.90;;;;;;4176176;28;20285;-74
2022/11/13 00:59:55;;;;;;;11.02;9.00;;;18.50;99.90;;;;;;4178991;28;20690;-73
2022/11/13 01:01:59;;;;;;;10.13;8.88;;;18.50;99.90;;;;;;4179010;28;20676;-73
2022/11/13 01:04:01;;;;;;;12.77;10.13;;;18.50;99.90;;;;;;4178975;28;20253;-73
2022/11/13 01:06:11;;;;;;;11.25;9.40;;;18.50;99.90;;;;;;4179153;28;20250;-73
2022/11/13 01:08:15;;;;;;;10.75;9.60;;;18.50;99.90;;;;;;4179241;28;20216;-73
2022/11/13 01:10:17;;;;;;;10.93;9.13;;;18.50;99.90;;;;;;4173973;28;20211;-73
2022/11/13 01:12:20;;;;;;;11.75;9.30;;;18.50;99.90;;;;;;4178760;28;20290;-73
2022/11/13 01:14:22;;;;;;;13.30;9.15;;;18.50;99.90;;;;;;4178269;28;20293;-73
2022/11/13 01:16:26;;;;;;;12.15;9.88;;;18.50;99.90;;;;;;4178579;28;20212;-73
2022/11/13 01:18:30;;;;;;;11.27;9.57;;;18.50;99.90;;;;;;4179092;28;20219;-73
2022/11/13 01:20:32;;;;;;;11.13;9.77;;;18.50;99.90;;;;;;4179358;28;20208;-73
2022/11/13 01:22:34;;;;;;;11.88;9.73;;;18.50;99.90;;;;;;4178769;28;20722;-73
2022/11/13 01:24:37;;;;;;;11.68;9.52;;;18.50;99.90;;;;;;4178649;28;20216;-73
2022/11/13 01:26:39;;;;;;;13.20;9.43;;;18.50;99.90;;;;;;4178822;28;20734;-73
2022/11/13 01:28:43;;;;;;;11.57;9.77;;;18.50;99.90;;;;;;4178652;28;20609;-73
2022/11/13 01:30:45;;;;;;;11.63;9.40;;;18.50;99.90;;;;;;4178971;28;20660;-72
2022/11/13 01:32:47;;;;;;;10.95;9.80;;;18.50;99.90;;;;;;4178754;28;20646;-72
2022/11/13 01:34:51;;;;;;;10.70;9.20;;;18.50;99.90;;;;;;4178519;28;20294;-72
2022/11/13 01:36:53;;;;;;;11.20;9.48;;;18.50;99.90;;;;;;4178485;28;20234;-72
2022/11/13 01:38:56;;;;;;;11.13;9.77;;;18.50;99.90;;;;;;4178894;28;20262;-72
2022/11/13 01:40:58;;;;;;;12.75;9.63;;;18.40;99.90;;;;;;4178573;28;20265;-72
2022/11/13 01:43:19;;;;;;;10.13;9.05;;;18.40;99.90;;;;;;4178385;28;20274;-72
2022/11/13 01:46:07;;;;;;;10.85;9.27;;;18.40;99.90;;;;;;4178421;28;20370;-72
2022/11/13 01:48:11;;;;;;;11.02;9.50;;;18.40;99.90;;;;;;4178907;28;20266;-72
2022/11/13 01:50:15;;;;;;;11.40;9.38;;;18.40;99.90;;;;;;4162060;28;20722;-73
2022/11/13 01:52:20;;;;;;;10.85;9.18;;;18.40;99.90;;;;;;4162008;28;20216;-73
2022/11/13 01:54:26;;;;;;;12.45;9.40;;;18.40;99.90;;;;;;4162096;28;20220;-73
2022/11/13 01:56:29;;;;;;;11.55;9.38;;;18.40;99.90;;;;;;4164081;28;20694;-73
2022/11/13 01:58:31;;;;;;;10.65;9.55;;;18.40;99.90;;;;;;4169213;28;20695;-73
2022/11/13 02:00:34;;;;;;;12.02;9.63;;;18.40;99.90;;;;;;4162083;28;20217;-73
2022/11/13 02:02:37;;;;;;;11.57;9.48;;;18.40;99.90;;;;;;4161758;28;20220;-73
2022/11/13 02:04:39;;;;;;;11.32;9.35;;;18.40;99.90;;;;;;4162134;28;20274;-73
2022/11/13 02:06:48;;;;;;;10.55;9.40;;;18.40;99.90;;;;;;4149306;28;20623;-73
2022/11/13 02:08:51;;;;;;;11.25;9.55;;;18.40;99.90;;;;;;4145742;28;20291;-73
2022/11/13 02:10:53;;;;;;;10.63;9.15;;;18.40;99.90;;;;;;4153338;28;20288;-73
2022/11/13 02:12:56;;;;;;;13.90;10.63;;;18.40;99.90;;;;;;4155368;28;20209;-73
2022/11/13 02:15:00;;;;;;;11.63;9.63;;;18.40;99.90;;;;;;4161768;28;20236;-73
2022/11/13 02:17:06;;;;;;;13.02;10.20;;;18.40;99.90;;;;;;4161754;28;20224;-72
2022/11/13 02:19:14;;;;;;;12.98;9.35;;;18.30;99.90;;;;;;4164132;28;20208;-72
2022/11/13 02:21:31;;;;;;;12.30;9.77;;;18.30;99.90;;;;;;4164748;28;20224;-74
2022/11/13 02:23:45;;;;;;;11.38;9.32;;;18.30;99.90;;;;;;4153930;28;20217;-73
2022/11/13 02:25:52;;;;;;;12.32;9.88;;;18.30;99.90;;;;;;4148896;28;20261;-73
2022/11/13 02:27:54;;;;;;;10.30;9.20;;;18.30;99.90;;;;;;4148690;28;20265;-73
2022/11/13 02:29:56;;;;;;;10.32;9.20;;;18.30;99.90;;;;;;4148469;28;20218;-73
2022/11/13 02:31:59;;;;;;;10.32;9.23;;;18.30;99.90;;;;;;4148743;28;20268;-73
2022/11/13 02:34:02;;;;;;;10.65;9.50;;;18.30;99.90;;;;;;4149020;28;20363;-73
2022/11/13 02:36:07;;;;;;;11.23;9.30;;;18.30;99.90;;;;;;4148190;28;20237;-72
2022/11/13 02:38:09;;;;;;;13.15;10.02;;;18.30;99.90;;;;;;4148548;28;20673;-73
2022/11/13 02:40:12;;;;;;;10.68;9.05;;;18.30;99.90;;;;;;4157418;28;20696;-73
2022/11/13 02:42:16;;;;;;;11.70;9.82;;;18.30;99.90;;;;;;4163552;28;20531;-73
2022/11/13 02:44:18;;;;;;;12.23;9.50;;;18.30;99.90;;;;;;4163498;28;20236;-73
2022/11/13 02:46:20;;;;;;;11.02;9.77;;;18.30;99.90;;;;;;4163393;28;20904;-73
2022/11/13 02:48:23;;;;;;;12.40;9.77;;;18.30;99.90;;;;;;4163638;28;20216;-73
2022/11/13 02:50:25;;;;;;;10.75;9.35;;;18.30;99.90;;;;;;4161965;28;20220;-73
2022/11/13 02:52:27;;;;;;;10.85;9.38;;;18.30;99.90;;;;;;4163382;28;20496;-73
2022/11/13 02:54:30;;;;;;;11.82;9.80;;;18.30;99.90;;;;;;4163189;28;20739;-72
2022/11/13 02:56:32;;;;;;;13.40;9.85;;;18.30;99.90;;;;;;4161787;28;20767;-73
2022/11/13 02:58:36;;;;;;;10.80;9.52;;;18.30;99.90;;;;;;4160806;28;20244;-73
2022/11/13 03:00:38;;;;;;;12.50;9.55;;;18.30;99.90;;;;;;4163310;28;20279;-73
2022/11/13 03:02:41;;;;;;;12.85;9.85;;;18.30;99.90;;;;;;4163029;28;20220;-72
2022/11/13 03:04:43;;;;;;;11.25;9.45;;;18.30;99.90;;;;;;4162907;28;20220;-72
2022/11/13 03:06:45;;;;;;;10.77;9.30;;;18.30;99.90;;;;;;4163273;28;20224;-72
2022/11/13 03:08:48;;;;;;;10.40;9.30;;;18.30;99.90;;;;;;4162113;28;20271;-72
2022/11/13 03:10:50;;;;;;;11.50;9.40;;;18.30;99.90;;;;;;4162659;28;20224;-72
2022/11/13 03:12:52;;;;;;;10.45;8.82;;;18.30;99.90;;;;;;4162278;28;20254;-72
2022/11/13 03:14:56;;;;;;;10.85;9.60;;;18.20;99.90;;;;;;4161554;28;20271;-72
2022/11/13 03:16:58;;;;;;;11.30;9.52;;;18.20;99.90;;;;;;4162499;28;20275;-73
2022/11/13 03:19:01;;;;;;;12.00;9.95;;;18.30;99.90;;;;;;4162583;28;20220;-73
2022/11/13 03:21:07;;;;;;;10.00;8.98;;;18.30;99.90;;;;;;4162805;28;20274;-73
2022/11/13 03:23:10;;;;;;;10.63;9.35;;;18.30;99.90;;;;;;4162812;28;20258;-72
2022/11/13 03:25:12;;;;;;;10.77;9.63;;;18.20;99.90;;;;;;4162481;28;20271;-72
2022/11/13 03:27:14;;;;;;;10.02;9.00;;;18.20;99.90;;;;;;4162573;28;20220;-72
2022/11/13 03:29:17;;;;;;;11.27;9.30;;;18.20;99.90;;;;;;4163128;28;20224;-72
2022/11/13 03:31:21;;;;;;;10.02;9.02;;;18.20;99.90;;;;;;4161732;28;20248;-72
2022/11/13 03:33:23;;;;;;;11.45;10.20;;;18.20;99.90;;;;;;4162984;28;20216;-72
2022/11/13 03:35:26;;;;;;;9.82;8.55;;;18.20;99.90;;;;;;4162412;28;20244;-71
2022/11/13 03:37:28;;;;;;;13.02;9.55;;;18.20;99.90;;;;;;4162589;28;20220;-72
2022/11/13 03:39:30;;;;;;;11.60;9.02;;;18.20;99.90;;;;;;4162913;28;20302;-72
2022/11/13 03:41:33;;;;;;;10.70;9.60;;;18.20;99.90;;;;;;4162500;28;20221;-72
2022/11/13 03:43:35;;;;;;;11.13;9.05;;;18.20;99.90;;;;;;4162193;28;20216;-72
2022/11/13 03:45:37;;;;;;;10.50;9.25;;;18.20;99.90;;;;;;4162312;28;20267;-72
2022/11/13 03:47:41;;;;;;;10.20;8.95;;;18.10;99.90;;;;;;4160627;28;20225;-72
2022/11/13 03:49:43;;;;;;;11.73;9.60;;;18.20;99.90;;;;;;4162360;28;20224;-73
2022/11/13 03:51:45;;;;;;;11.13;9.50;;;18.20;99.90;;;;;;4162627;28;20974;-73
2022/11/13 03:53:48;;;;;;;11.45;10.13;;;18.20;99.90;;;;;;4162597;28;20270;-72
2022/11/13 03:55:51;;;;;;;10.38;9.30;;;18.10;99.90;;;;;;4162523;28;20262;-72
2022/11/13 03:57:53;;;;;;;10.68;9.35;;;18.20;99.90;;;;;;4165197;28;20590;-72
2022/11/13 03:59:55;;;;;;;9.75;8.75;;;18.20;99.90;;;;;;4179075;28;20219;-72
2022/11/13 04:01:58;;;;;;;11.77;10.25;;;18.20;99.90;;;;;;4178647;28;20242;-72
2022/11/13 04:04:01;;;;;;;10.13;8.95;;;18.20;99.90;;;;;;4178731;28;20277;-72
2022/11/13 04:06:04;;;;;;;10.98;8.90;;;18.20;99.90;;;;;;4171515;28;20660;-72
2022/11/13 04:08:06;;;;;;;11.48;8.95;;;18.20;99.90;;;;;;4168250;28;20279;-72
2022/11/13 04:10:09;;;;;;;11.13;9.57;;;18.20;99.90;;;;;;4175516;28;20232;-72
2022/11/13 04:12:11;;;;;;;10.75;9.63;;;18.20;99.90;;;;;;4178132;28;20615;-72
2022/11/13 04:14:13;;;;;;;11.07;9.13;;;18.20;99.90;;;;;;4178654;28;20220;-72
2022/11/13 04:16:15;;;;;;;10.60;9.50;;;18.10;99.90;;;;;;4178476;28;21020;-73
2022/11/13 04:18:18;;;;;;;10.52;9.23;;;18.10;99.90;;;;;;4178692;28;20308;-73
2022/11/13 04:20:21;;;;;;;10.68;9.27;;;18.10;99.90;;;;;;4176836;28;20258;-73
2022/11/13 04:22:24;;;;;;;10.85;9.35;;;18.10;99.90;;;;;;4174872;28;20605;-73
2022/11/13 04:24:26;;;;;;;11.82;9.13;;;18.10;99.90;;;;;;4178716;28;20335;-73
2022/11/13 04:26:28;;;;;;;10.32;9.23;;;18.20;99.90;;;;;;4178405;28;20261;-73
2022/11/13 04:28:32;;;;;;;11.60;9.50;;;18.20;99.90;;;;;;4178221;28;20975;-73
2022/11/13 04:30:34;;;;;;;11.77;8.52;;;18.10;99.90;;;;;;4178708;28;20558;-73
2022/11/13 04:32:36;;;;;;;10.43;9.15;;;18.20;99.90;;;;;;4178279;28;20336;-73
2022/11/13 04:34:38;;;;;;;12.50;9.95;;;18.20;99.90;;;;;;4178309;28;20238;-73
2022/11/13 04:36:42;;;;;;;10.98;8.93;;;18.20;99.90;;;;;;4178191;28;20285;-73
2022/11/13 04:38:44;;;;;;;10.25;9.15;;;18.10;99.90;;;;;;4174452;28;20221;-73
2022/11/13 04:40:49;;;;;;;11.32;9.75;;;18.10;99.90;;;;;;4177852;28;20289;-73
2022/11/13 04:42:51;;;;;;;11.00;9.20;;;18.10;99.90;;;;;;4178728;28;20223;-73
2022/11/13 04:44:53;;;;;;;10.75;9.10;;;18.10;99.90;;;;;;4178377;28;20269;-73
2022/11/13 04:46:55;;;;;;;12.45;10.15;;;18.10;99.90;;;;;;4178037;28;20208;-73
2022/11/13 04:48:57;;;;;;;11.13;8.50;;;18.20;99.90;;;;;;4178312;28;20654;-73
2022/11/13 04:51:00;;;;;;;11.88;9.35;;;18.10;99.90;;;;;;4178175;28;20278;-73
2022/11/13 04:53:03;;;;;;;10.23;9.05;;;18.10;99.90;;;;;;4178069;28;20281;-73
2022/11/13 04:55:07;;;;;;;10.38;9.20;;;18.20;99.90;;;;;;4178719;28;20981;-73
2022/11/13 04:57:09;;;;;;;11.18;9.75;;;18.10;99.90;;;;;;4165736;28;20673;-73
2022/11/13 04:59:11;;;;;;;10.35;8.52;;;18.10;99.90;;;;;;4161049;28;20287;-73
2022/11/13 05:01:14;;;;;;;10.55;9.43;;;18.10;99.90;;;;;;4161142;28;20209;-73
2022/11/13 05:03:16;;;;;;;10.32;9.13;;;18.10;99.90;;;;;;4161339;28;20267;-73
2022/11/13 05:05:18;;;;;;;10.88;9.25;;;18.10;99.90;;;;;;4159702;28;20217;-73
2022/11/13 05:07:20;;;;;;;11.90;8.88;;;18.10;99.90;;;;;;4160305;28;21040;-73
2022/11/13 05:09:24;;;;;;;10.73;9.18;;;18.10;99.90;;;;;;4160912;28;20220;-73
2022/11/13 05:11:26;;;;;;;9.93;8.80;;;18.10;99.90;;;;;;4160913;28;20220;-73
2022/11/13 05:13:31;;;;;;;9.38;8.38;;;18.10;99.90;;;;;;4156485;28;20220;-73
2022/11/13 05:15:33;;;;;;;10.45;9.13;;;18.10;99.90;;;;;;4161190;28;20224;-73
2022/11/13 05:17:36;;;;;;;11.88;9.80;;;18.00;99.90;;;;;;4158484;28;20290;-73
2022/11/13 05:19:39;;;;;;;10.82;9.60;;;18.10;99.90;;;;;;4161212;28;20731;-73
2022/11/13 05:21:41;;;;;;;10.70;8.82;;;18.10;99.90;;;;;;4161568;28;20224;-73
2022/11/13 05:23:43;;;;;;;10.13;9.05;;;18.00;99.90;;;;;;4161343;28;20228;-73
2022/11/13 05:25:47;;;;;;;11.07;9.13;;;18.00;99.90;;;;;;4161233;28;20675;-73
2022/11/13 05:27:49;;;;;;;10.60;9.27;;;18.00;99.90;;;;;;4161080;28;20279;-73
2022/11/13 05:29:54;;;;;;;10.70;9.20;;;18.00;99.90;;;;;;4158518;28;20216;-72
2022/11/13 05:31:57;;;;;;;11.02;9.23;;;18.00;99.90;;;;;;4161023;28;20208;-72
2022/11/13 05:33:59;;;;;;;11.90;9.50;;;18.00;99.90;;;;;;4160973;28;20256;-73
2022/11/13 05:36:02;;;;;;;11.02;9.25;;;18.00;99.90;;;;;;4161124;28;21683;-73
2022/11/13 05:38:04;;;;;;;11.27;9.00;;;18.00;99.90;;;;;;4161342;28;20644;-72
2022/11/13 05:40:07;;;;;;;11.63;9.30;;;18.00;99.90;;;;;;4161059;28;20216;-72
2022/11/13 05:42:11;;;;;;;11.25;9.30;;;18.00;99.90;;;;;;4160852;28;20216;-72
2022/11/13 05:44:13;;;;;;;10.63;8.52;;;18.00;99.90;;;;;;4161156;28;20225;-72
2022/11/13 05:46:18;;;;;;;12.43;9.73;;;18.00;99.90;;;;;;4159885;28;20271;-72
2022/11/13 05:48:20;;;;;;;10.55;9.45;;;18.00;99.90;;;;;;4159663;28;20232;-72
2022/11/13 05:50:22;;;;;;;9.95;8.90;;;18.00;99.90;;;;;;4161254;28;20228;-72
2022/11/13 05:52:24;;;;;;;10.77;9.52;;;18.00;99.90;;;;;;4160813;28;20220;-72
2022/11/13 05:54:27;;;;;;;10.30;9.30;;;18.00;99.90;;;;;;4164116;28;20596;-72
2022/11/13 05:56:31;;;;;;;10.35;8.55;;;18.00;99.90;;;;;;4164063;28;20271;-72
2022/11/13 05:58:34;;;;;;;10.73;9.20;;;18.00;99.90;;;;;;4172476;28;20691;-72
2022/11/13 06:00:37;;;;;;;10.00;8.80;;;18.00;99.90;;;;;;4180567;28;20241;-72
2022/11/13 06:02:39;;;;;;;10.23;9.15;;;18.00;99.90;;;;;;4180854;28;20270;-73
2022/11/13 06:04:41;;;;;;;10.48;9.38;;;18.00;99.90;;;;;;4174503;28;20212;-72
2022/11/13 06:06:44;;;;;;;10.77;8.82;;;18.00;99.90;;;;;;4177894;28;20212;-72
2022/11/13 06:08:48;;;;;;;11.13;9.23;;;17.90;99.90;;;;;;4180435;28;20309;-72
2022/11/13 06:10:50;;;;;;;10.15;8.82;;;17.90;99.90;;;;;;4180435;28;20269;-72
2022/11/13 06:12:54;;;;;;;10.35;9.25;;;17.90;99.90;;;;;;4179268;28;20285;-72
2022/11/13 06:14:58;;;;;;;9.48;8.48;;;17.90;99.90;;;;;;4180173;28;20269;-72
2022/11/13 06:17:00;;;;;;;9.82;8.82;;;17.90;99.90;;;;;;4179213;28;20231;-72
2022/11/13 06:19:05;;;;;;;11.52;9.25;;;17.90;99.90;;;;;;4180701;28;20223;-72
2022/11/13 06:21:10;;;;;;;11.27;9.50;;;17.90;99.90;;;;;;4178891;28;20215;-72
2022/11/13 06:23:12;;;;;;;9.98;8.70;;;17.90;99.90;;;;;;4180370;28;20668;-72
2022/11/13 06:25:14;;;;;;;10.18;8.65;;;17.90;99.90;;;;;;4180306;28;20571;-72
2022/11/13 06:27:17;;;;;;;10.77;9.48;;;17.90;99.90;;;;;;4179764;28;20281;-72
2022/11/13 06:29:19;;;;;;;10.55;8.93;;;17.90;99.90;;;;;;4180074;28;20219;-72
2022/11/13 06:31:25;;;;;;;10.25;9.00;;;17.90;99.90;;;;;;4180243;28;20965;-72
2022/11/13 06:33:28;;;;;;;10.60;9.13;;;17.90;99.90;;;;;;4180239;28;20216;-72
2022/11/13 06:35:31;;;;;;;10.13;8.98;;;17.90;99.90;;;;;;4180578;28;20273;-72
2022/11/13 06:37:33;;;;;;;11.00;9.15;;;17.80;99.90;;;;;;4178771;28;20301;-72
2022/11/13 06:39:35;;;;;;;10.50;8.90;;;17.80;99.90;;;;;;4180034;28;20223;-72
2022/11/13 06:41:38;;;;;;;9.85;8.75;;;17.80;99.90;;;;;;4180136;28;20224;-72
2022/11/13 06:43:41;;;;;;;11.80;9.35;;;17.80;99.90;;;;;;4180009;28;20372;-72
2022/11/13 06:45:43;;;;;;;10.00;8.95;;;17.90;99.90;;;;;;4179915;28;20289;-72
2022/11/13 06:47:47;;;;;;;10.23;8.95;;;17.90;99.90;;;;;;4180179;28;20602;-72
2022/11/13 06:49:49;;;;;;;10.00;8.65;;;17.80;99.90;;;;;;4180039;28;20551;-72
2022/11/13 06:51:52;;;;;;;10.75;8.65;;;17.80;99.90;;;;;;4179997;28;20556;-72
2022/11/13 06:53:54;;;;;;;9.75;8.75;;;17.80;99.90;;;;;;4180112;28;20688;-72
2022/11/13 06:55:56;;;;;;;9.90;8.35;;;17.80;99.90;;;;;;4177900;28;20228;-72
2022/11/13 06:57:59;;;;;;;11.38;8.90;;;17.80;99.90;;;;;;4178819;28;21034;-72
2022/11/13 07:00:01;;;;;;;10.60;8.68;;;17.80;99.90;;;;;;4179623;28;20289;-72
2022/11/13 07:02:03;;;;;;;9.32;8.25;;;17.80;99.90;;;;;;4179967;28;20224;-71
2022/11/13 07:04:11;;;;;;;12.18;8.60;;;17.80;99.90;;;;;;4165331;28;20212;-72
2022/11/13 07:06:17;;;;;;;11.07;8.65;;;17.80;99.90;;;;;;4161566;28;20223;-72
2022/11/13 07:08:19;;;;;;;10.55;8.48;;;17.80;99.90;;;;;;4161640;28;20220;-72
2022/11/13 07:10:22;;;;;;;10.27;8.80;;;17.80;99.90;;;;;;4163117;28;20639;-72
2022/11/13 07:12:24;;;;;;;9.90;8.82;;;17.80;99.90;;;;;;4157965;28;20216;-72
2022/11/13 07:14:26;;;;;;;10.52;8.88;;;17.80;99.90;;;;;;4162852;28;20216;-73
2022/11/13 07:16:28;;;;;;;9.25;8.02;;;17.80;99.90;;;;;;4163719;28;20258;-72
2022/11/13 07:18:32;;;;;;;10.07;8.35;;;17.80;99.90;;;;;;4179007;28;20239;-73
2022/11/13 07:20:35;;;;;;;10.32;9.25;;;17.80;99.90;;;;;;4179435;28;20738;-72
2022/11/13 07:22:37;;;;;;;10.48;8.48;;;17.80;99.90;;;;;;4161890;28;20271;-72
2022/11/13 07:24:41;;;;;;;11.50;8.70;;;17.80;99.90;;;;;;4162833;28;20216;-73
2022/11/13 07:26:43;;;;;;;10.20;8.70;;;17.80;99.90;;;;;;4162562;28;20217;-72
2022/11/13 07:28:46;;;;;;;10.35;8.98;;;17.70;99.90;;;;;;4158543;28;21081;-73
2022/11/13 07:30:48;;;;;;;10.23;8.80;;;17.70;99.90;;;;;;4162928;28;20278;-73
2022/11/13 07:32:50;;;;;;;10.18;8.32;;;17.80;99.90;;;;;;4162640;28;20216;-72
2022/11/13 07:34:52;;;;;;;10.48;8.40;;;17.80;99.90;;;;;;4162564;28;20665;-72
2022/11/13 07:36:56;;;;;;;9.55;8.25;;;17.80;99.90;;;;;;4162640;28;20228;-72
2022/11/13 07:38:58;;;;;;;12.45;8.77;;;17.70;99.90;;;;;;4162297;28;20236;-72
2022/11/13 07:41:01;;;;;;;10.63;8.70;;;17.80;99.90;;;;;;4162997;28;20276;-72
2022/11/13 07:43:03;;;;;;;10.93;9.07;;;17.80;99.90;;;;;;4178763;28;20227;-72
2022/11/13 07:45:06;;;;;;;8.95;7.93;;;17.70;99.90;;;;;;4178806;28;20228;-72
2022/11/13 07:47:09;;;;;;;11.18;8.38;;;17.70;99.90;;;;;;4159895;28;20221;-72
2022/11/13 07:49:11;;;;;;;9.40;8.40;;;17.70;99.90;;;;;;4162622;28;20271;-72
2022/11/13 07:51:13;;;;;;;9.63;8.05;;;17.70;99.90;;;;;;4162057;28;20275;-72
2022/11/13 07:53:18;;;;;;;9.20;8.25;;;17.80;99.90;;;;;;4178950;28;20273;-72
2022/11/13 07:55:20;;;;;;;10.05;8.88;;;17.70;99.90;;;;;;4179051;28;20222;-72
2022/11/13 07:57:22;;;;;;;10.68;8.20;;;17.80;99.90;;;;;;4169495;28;20220;-72
2022/11/13 07:59:25;;;;;;;10.38;7.90;;;17.70;99.90;;;;;;4161924;28;20236;-72
2022/11/13 08:01:27;;;;;;;10.05;8.18;;;17.80;99.90;;;;;;4162401;28;20703;-72
2022/11/13 08:03:30;;;;;;;10.45;8.75;;;17.70;99.90;;;;;;4170796;28;20216;-72
2022/11/13 08:05:32;;;;;;;9.77;8.60;;;17.70;99.90;;;;;;4169115;28;20224;-72
2022/11/13 08:07:34;;;;;;;8.80;7.90;;;17.80;99.90;;;;;;4174752;28;20269;-72
2022/11/13 08:09:38;;;;;;;10.32;8.77;;;17.70;99.90;;;;;;4179571;28;20266;-72
2022/11/13 08:11:40;;;;;;;9.88;8.80;;;17.70;99.90;;;;;;4179044;28;20632;-72
2022/11/13 08:13:43;;;;;;;10.10;7.80;;;17.70;99.90;;;;;;4175085;28;20676;-72
2022/11/13 08:15:45;;;;;;;11.82;8.40;;;17.70;99.90;;;;;;4177611;28;20667;-72
2022/11/13 08:17:54;;;;;;;8.52;7.70;;;17.70;99.90;;;;;;4176019;28;20290;-72
2022/11/13 08:19:56;;;;;;;9.00;8.02;;;17.70;99.90;;;;;;4174853;28;20219;-72
2022/11/13 08:21:58;;;;;;;8.80;7.90;;;17.70;99.90;;;;;;4178324;28;20274;-72
2022/11/13 08:24:00;;;;;;;8.55;7.65;;;17.70;99.90;;;;;;4178417;28;20282;-72
2022/11/13 08:26:08;;;;;;;8.32;7.45;;;17.70;99.90;;;;;;4178190;28;20220;-72
2022/11/13 08:28:10;;;;;;;10.18;8.40;;;17.70;99.90;;;;;;4178637;28;20283;-72
2022/11/13 08:30:14;;;;;;;8.57;7.68;;;17.70;99.90;;;;;;4178425;28;20238;-72
2022/11/13 08:32:17;;;;;;;8.98;7.78;;;17.70;99.90;;;;;;4178528;28;20208;-72
2022/11/13 08:34:20;;;;;;;8.70;7.80;;;17.70;99.90;;;;;;4178378;28;20256;-72
2022/11/13 08:36:22;;;;;;;8.90;8.00;;;17.70;99.90;;;;;;4175302;28;20672;-72
2022/11/13 08:38:25;;;;;;;9.68;8.02;;;17.70;99.90;;;;;;4177867;28;20228;-72
2022/11/13 08:40:27;;;;;;;8.82;7.75;;;17.70;99.90;;;;;;4178122;28;20273;-72
2022/11/13 08:42:30;;;;;;;8.40;7.20;;;17.70;99.90;;;;;;4178298;28;20238;-72
2022/11/13 08:44:33;;;;;;;8.77;7.88;;;17.70;99.90;;;;;;4177847;28;20216;-72
2022/11/13 08:46:35;;;;;;;9.23;7.72;;;17.70;99.90;;;;;;4177941;28;20269;-72
2022/11/13 08:48:37;;;;;;;9.70;8.18;;;17.70;99.90;;;;;;4178216;28;20270;-72
2022/11/13 08:50:40;;;;;;;9.85;7.97;;;17.70;99.90;;;;;;4178144;28;20624;-72
2022/11/13 08:52:42;;;;;;;8.90;7.57;;;17.70;99.90;;;;;;4178341;28;20236;-72
2022/11/13 08:54:44;;;;;;;9.32;7.50;;;17.70;99.90;;;;;;4173737;28;20635;-72
2022/11/13 08:56:47;;;;;;;9.68;7.90;;;17.70;99.90;;;;;;4173242;28;20271;-72
2022/11/13 08:58:51;;;;;;;7.78;6.93;;;17.70;99.90;;;;;;4172060;28;20243;-72
2022/11/13 09:00:53;;;;;;;8.73;7.78;;;17.70;99.90;;;;;;4177359;28;20224;-72
2022/11/13 09:02:59;;;;;;;9.68;7.85;;;17.70;99.90;;;;;;4176051;28;20231;-72
2022/11/13 09:05:01;;;;;;;8.65;7.55;;;17.70;99.90;;;;;;4177543;28;20228;-72
2022/11/13 09:07:03;;;;;;;9.40;7.72;;;17.70;99.90;;;;;;4178002;28;20610;-72
2022/11/13 09:09:06;;;;;;;8.55;7.65;;;17.70;99.90;;;;;;4177637;28;20216;-72
2022/11/13 09:11:09;;;;;;;8.75;7.85;;;17.70;99.90;;;;;;4176610;28;20228;-72
2022/11/13 09:13:11;;;;;;;9.15;8.05;;;17.70;99.90;;;;;;4176585;28;20215;-72
2022/11/13 09:15:15;;;;;;;8.77;7.53;;;17.60;99.90;;;;;;4177514;28;20266;-72
2022/11/13 09:17:17;;;;;;;9.23;8.05;;;17.70;99.90;;;;;;4176630;28;20215;-72
2022/11/13 09:19:19;;;;;;;8.45;7.10;;;17.60;99.90;;;;;;4178034;28;20635;-72
2022/11/13 09:21:22;;;;;;;8.60;7.70;;;17.60;99.90;;;;;;4177760;28;20228;-72
2022/11/13 09:23:24;;;;;;;7.78;7.00;;;17.70;99.90;;;;;;4177156;28;20216;-73
2022/11/13 09:25:28;;;;;;;9.43;7.35;;;17.70;99.90;;;;;;4177607;28;20220;-72
2022/11/13 09:27:31;;;;;;;8.98;7.72;;;17.70;99.90;;;;;;4176303;28;20211;-73
2022/11/13 09:29:34;;;;;;;8.95;7.53;;;17.70;99.90;;;;;;4177361;28;20615;-72
2022/11/13 09:31:39;;;;;;;9.15;7.75;;;17.70;99.90;;;;;;4177549;28;20951;-72
2022/11/13 09:33:42;;;;;;;8.57;7.68;;;17.70;99.90;;;;;;4177325;28;21054;-72
2022/11/13 09:35:44;;;;;;;8.73;7.60;;;17.70;99.90;;;;;;4177566;28;20223;-72
2022/11/13 09:37:46;;;;;;;9.32;7.88;;;17.70;99.90;;;;;;4177208;28;20625;-72
2022/11/13 09:39:48;;;;;;;8.18;7.25;;;17.70;99.90;;;;;;4177428;28;20282;-72
2022/11/13 09:41:56;;;;;;;8.45;7.25;;;17.70;99.90;;;;;;4177212;28;20219;-72
2022/11/13 09:44:02;;;;;;;8.63;7.47;;;17.70;99.90;;;;;;4177203;28;20621;-72
2022/11/13 09:46:12;;;;;;;8.77;7.32;;;17.70;99.90;;;;;;4176046;28;20232;-72
2022/11/13 09:48:28;;;;;;;8.52;7.65;;;17.70;99.90;;;;;;4177313;28;20281;-72
2022/11/13 09:50:32;;;;;;;8.05;6.85;;;17.70;99.90;;;;;;4177254;28;20968;-73
2022/11/13 09:52:39;;;;;;;8.05;7.20;;;17.80;99.90;;;;;;4177191;28;20219;-72
2022/11/13 09:54:42;;;;;;;8.25;7.00;;;17.70;99.90;;;;;;4177606;28;20239;-73
2022/11/13 09:56:50;;;;;;;9.27;7.65;;;17.70;99.90;;;;;;4177425;28;21697;-72
2022/11/13 09:59:00;;;;;;;8.32;7.43;;;17.80;99.90;;;;;;4177071;28;20235;-72
2022/11/13 10:01:04;;;;;;;7.97;6.43;;;17.70;99.90;;;;;;4175750;28;20257;-72
2022/11/13 10:03:27;;;;;;;8.00;7.10;;;17.80;99.90;;;;;;4173316;28;20223;-72
2022/11/13 10:05:38;;;;;;;8.35;7.28;;;17.80;99.90;;;;;;4172752;28;20219;-73
2022/11/13 10:07:50;;;;;;;8.30;7.32;;;17.80;99.90;;;;;;4177479;28;20281;-72
2022/11/13 10:10:17;;;;;;;7.97;6.80;;;17.80;99.90;;;;;;4177210;28;20245;-72
2022/11/13 10:12:20;;;;;;;8.30;7.03;;;17.80;99.90;;;;;;4173509;28;21722;-72
2022/11/13 10:14:28;;;;;;;9.02;7.25;;;17.80;99.90;;;;;;4177002;28;20347;-72
2022/11/13 10:16:34;;;;;;;7.65;6.85;;;17.80;99.90;;;;;;4174423;28;20623;-72
2022/11/13 10:18:39;;;;;;;8.40;7.22;;;17.90;99.90;;;;;;4173572;28;20275;-72
2022/11/13 10:20:48;;;;;;;8.00;7.20;;;17.90;99.90;;;;;;4177442;28;20239;-72
2022/11/13 10:22:52;;;;;;;8.10;7.28;;;17.90;99.90;;;;;;4177063;28;20223;-72
2022/11/13 10:25:01;;;;;;;7.20;6.10;;;17.90;99.90;;;;;;4176826;28;20634;-72
2022/11/13 10:27:08;;;;;;;8.15;7.35;;;17.90;99.90;;;;;;4177313;28;20738;-72
2022/11/13 10:29:13;;;;;;;8.77;7.40;;;17.90;99.90;;;;;;4177245;28;20262;-73
2022/11/13 10:31:15;;;;;;;8.15;7.35;;;17.90;99.90;;;;;;4177253;28;20305;-72
2022/11/13 10:33:19;;;;;;;8.65;7.32;;;17.90;99.90;;;;;;4176646;28;20247;-72
2022/11/13 10:35:44;;;;;;;8.55;6.90;;;17.90;99.90;;;;;;4174531;28;20231;-73
2022/11/13 10:37:57;;;;;;;7.85;7.10;;;18.00;99.90;;;;;;4174362;28;20281;-72